sensor_id;sensor_type;location;lat;lon;timestamp;pressure;altitude;pressure_sealevel;temperature;humidity
46714;BME280;32445;51.376;10.874;2023-04-08T00:01:29;99850.31;;;10.36;42.92
46714;BME280;32445;51.376;10.874;2023-04-08T00:04:29;99848.59;;;10.33;43.28
46714;BME280;32445;51.376;10.874;2023-04-08T00:07:30;99852.06;;;10.32;43.06
46714;BME280;32445;51.376;10.874;2023-04-08T00:10:31;99846.03;;;10.32;43.16
46714;BME280;32445;51.376;10.874;2023-04-08T00:13:31;99855.53;;;10.31;43.71
46714;BME280;32445;51.376;10.874;2023-04-08T00:16:32;99858.16;;;10.30;43.67
46714;BME280;32445;51.376;10.874;2023-04-08T00:19:32;99855.59;;;10.28;43.21
46714;BME280;32445;51.376;10.874;2023-04-08T00:22:32;99849.56;;;10.28;43.15
46714;BME280;32445;51.376;10.874;2023-04-08T00:25:33;99853.03;;;10.27;43.07
46714;BME280;32445;51.376;10.874;2023-04-08T00:28:33;99853.06;;;10.25;43.45
46714;BME280;32445;51.376;10.874;2023-04-08T00:31:34;99847.88;;;10.25;43.60
46714;BME280;32445;51.376;10.874;2023-04-08T00:34:34;99849.63;;;10.25;43.54
46714;BME280;32445;51.376;10.874;2023-04-08T00:37:34;99849.66;;;10.23;44.01
46714;BME280;32445;51.376;10.874;2023-04-08T00:40:35;99850.53;;;10.22;44.15
46714;BME280;32445;51.376;10.874;2023-04-08T00:43:35;99851.41;;;10.21;43.13
46714;BME280;32445;51.376;10.874;2023-04-08T00:46:38;99855.75;;;10.20;43.87
46714;BME280;32445;51.376;10.874;2023-04-08T00:49:40;99848.84;;;10.19;43.84
46714;BME280;32445;51.376;10.874;2023-04-08T00:52:40;99851.47;;;10.18;44.03
46714;BME280;32445;51.376;10.874;2023-04-08T00:55:41;99851.50;;;10.16;43.13
46714;BME280;32445;51.376;10.874;2023-04-08T00:58:41;99861.88;;;10.16;43.42
46714;BME280;32445;51.376;10.874;2023-04-08T01:01:54;99847.22;;;10.14;44.20
46714;BME280;32445;51.376;10.874;2023-04-08T01:08:11;99848.09;;;10.13;43.50
46714;BME280;32445;51.376;10.874;2023-04-08T01:11:13;99845.50;;;10.13;43.62
46714;BME280;32445;51.376;10.874;2023-04-08T01:14:18;99847.28;;;10.11;44.96
46714;BME280;32445;51.376;10.874;2023-04-08T01:17:21;99843.84;;;10.10;44.84
46714;BME280;32445;51.376;10.874;2023-04-08T01:20:26;99851.63;;;10.10;44.63
46714;BME280;32445;51.376;10.874;2023-04-08T01:23:45;99851.66;;;10.09;45.13
46714;BME280;32445;51.376;10.874;2023-04-08T01:26:50;99843.00;;;10.08;44.06
46714;BME280;32445;51.376;10.874;2023-04-08T01:29:51;99855.13;;;10.08;44.20
46714;BME280;32445;51.376;10.874;2023-04-08T01:32:54;99854.28;;;10.05;44.38
46714;BME280;32445;51.376;10.874;2023-04-08T01:35:56;99854.31;;;10.04;44.83
46714;BME280;32445;51.376;10.874;2023-04-08T01:39:00;99859.53;;;10.02;45.00
46714;BME280;32445;51.376;10.874;2023-04-08T01:42:02;99852.63;;;10.03;44.46
46714;BME280;32445;51.376;10.874;2023-04-08T01:45:03;99850.94;;;10.00;44.88
46714;BME280;32445;51.376;10.874;2023-04-08T01:48:04;99840.50;;;10.03;43.68
46714;BME280;32445;51.376;10.874;2023-04-08T01:51:06;99838.75;;;10.04;43.20
46714;BME280;32445;51.376;10.874;2023-04-08T01:54:07;99843.16;;;10.00;44.17
46714;BME280;32445;51.376;10.874;2023-04-08T01:57:11;99838.03;;;9.97;45.12
46714;BME280;32445;51.376;10.874;2023-04-08T02:00:15;99844.06;;;9.98;44.58
46714;BME280;32445;51.376;10.874;2023-04-08T02:03:18;99841.50;;;9.96;45.16
46714;BME280;32445;51.376;10.874;2023-04-08T02:06:22;99844.97;;;9.95;44.73
46714;BME280;32445;51.376;10.874;2023-04-08T02:09:23;99841.53;;;9.95;44.69
46714;BME280;32445;51.376;10.874;2023-04-08T02:12:24;99845.88;;;9.93;45.12
46714;BME280;32445;51.376;10.874;2023-04-08T02:15:26;99851.97;;;9.92;45.23
46714;BME280;32445;51.376;10.874;2023-04-08T02:18:29;99844.22;;;9.90;45.27
46714;BME280;32445;51.376;10.874;2023-04-08T02:21:35;99850.28;;;9.89;45.57
46714;BME280;32445;51.376;10.874;2023-04-08T02:24:37;99852.03;;;9.89;45.43
46714;BME280;32445;51.376;10.874;2023-04-08T02:27:39;99845.06;;;9.91;44.17
46714;BME280;32445;51.376;10.874;2023-04-08T02:30:42;99851.09;;;9.91;43.72
46714;BME280;32445;51.376;10.874;2023-04-08T02:33:43;99851.16;;;9.88;44.97
46714;BME280;32445;51.376;10.874;2023-04-08T02:36:44;99852.91;;;9.87;44.96
46714;BME280;32445;51.376;10.874;2023-04-08T02:39:46;99859.84;;;9.85;45.05
46714;BME280;32445;51.376;10.874;2023-04-08T02:42:46;99859.00;;;9.85;45.09
46714;BME280;32445;51.376;10.874;2023-04-08T02:45:47;99859.00;;;9.85;45.72
46714;BME280;32445;51.376;10.874;2023-04-08T02:48:47;99859.03;;;9.83;45.46
46714;BME280;32445;51.376;10.874;2023-04-08T02:51:47;99863.34;;;9.83;44.86
46714;BME280;32445;51.376;10.874;2023-04-08T02:54:48;99863.34;;;9.81;45.19
46714;BME280;32445;51.376;10.874;2023-04-08T02:57:48;99860.75;;;9.81;45.55
46714;BME280;32445;51.376;10.874;2023-04-08T03:00:49;99870.28;;;9.81;45.55
46714;BME280;32445;51.376;10.874;2023-04-08T03:03:49;99871.16;;;9.80;45.37
46714;BME280;32445;51.376;10.874;2023-04-08T03:06:50;99866.00;;;9.78;45.46
46714;BME280;32445;51.376;10.874;2023-04-08T03:09:50;99872.94;;;9.78;45.34
46714;BME280;32445;51.376;10.874;2023-04-08T03:12:51;99863.44;;;9.77;45.78
46714;BME280;32445;51.376;10.874;2023-04-08T03:15:51;99867.78;;;9.76;45.51
46714;BME280;32445;51.376;10.874;2023-04-08T03:18:52;99867.78;;;9.76;45.61
46714;BME280;32445;51.376;10.874;2023-04-08T03:21:52;99872.13;;;9.76;45.25
46714;BME280;32445;51.376;10.874;2023-04-08T03:24:52;99879.03;;;9.75;45.21
46714;BME280;32445;51.376;10.874;2023-04-08T03:27:53;99880.78;;;9.75;45.83
46714;BME280;32445;51.376;10.874;2023-04-08T03:30:53;99885.97;;;9.75;45.99
46714;BME280;32445;51.376;10.874;2023-04-08T03:33:54;99882.50;;;9.74;45.95
46714;BME280;32445;51.376;10.874;2023-04-08T03:36:54;99880.81;;;9.73;45.58
46714;BME280;32445;51.376;10.874;2023-04-08T03:39:54;99881.66;;;9.72;45.53
46714;BME280;32445;51.376;10.874;2023-04-08T03:42:55;99876.50;;;9.72;45.92
46714;BME280;32445;51.376;10.874;2023-04-08T03:45:55;99885.13;;;9.71;45.51
46714;BME280;32445;51.376;10.874;2023-04-08T03:48:56;99884.28;;;9.70;46.71
46714;BME280;32445;51.376;10.874;2023-04-08T03:51:56;99887.78;;;9.68;46.50
46714;BME280;32445;51.376;10.874;2023-04-08T03:54:56;99886.94;;;9.67;46.13
46714;BME280;32445;51.376;10.874;2023-04-08T03:57:56;99891.22;;;9.68;45.70
46714;BME280;32445;51.376;10.874;2023-04-08T04:00:57;99887.78;;;9.68;45.84
46714;BME280;32445;51.376;10.874;2023-04-08T04:03:57;99889.56;;;9.66;46.01
46714;BME280;32445;51.376;10.874;2023-04-08T04:06:58;99893.88;;;9.65;45.96
46714;BME280;32445;51.376;10.874;2023-04-08T04:09:58;99895.63;;;9.65;46.08
46714;BME280;32445;51.376;10.874;2023-04-08T04:12:59;99892.19;;;9.64;46.01
46714;BME280;32445;51.376;10.874;2023-04-08T04:15:59;99898.22;;;9.63;46.76
46714;BME280;32445;51.376;10.874;2023-04-08T04:18:59;99899.09;;;9.62;46.05
46714;BME280;32445;51.376;10.874;2023-04-08T04:22:00;99904.28;;;9.62;46.18
46714;BME280;32445;51.376;10.874;2023-04-08T04:25:00;99900.84;;;9.62;45.37
46714;BME280;32445;51.376;10.874;2023-04-08T04:28:00;99900.00;;;9.60;45.60
46714;BME280;32445;51.376;10.874;2023-04-08T04:31:02;99905.22;;;9.58;45.67
46714;BME280;32445;51.376;10.874;2023-04-08T04:34:03;99909.53;;;9.59;45.83
46714;BME280;32445;51.376;10.874;2023-04-08T04:37:03;99917.31;;;9.58;46.23
46714;BME280;32445;51.376;10.874;2023-04-08T04:40:04;99916.50;;;9.56;46.02
46714;BME280;32445;51.376;10.874;2023-04-08T04:43:05;99910.44;;;9.57;46.04
46714;BME280;32445;51.376;10.874;2023-04-08T04:46:05;99913.91;;;9.56;46.80
46714;BME280;32445;51.376;10.874;2023-04-08T04:49:08;99914.78;;;9.55;46.43
46714;BME280;32445;51.376;10.874;2023-04-08T04:52:08;99914.78;;;9.55;46.39
46714;BME280;32445;51.376;10.874;2023-04-08T04:55:08;99919.09;;;9.54;46.80
46714;BME280;32445;51.376;10.874;2023-04-08T04:58:09;99923.47;;;9.52;46.70
46714;BME280;32445;51.376;10.874;2023-04-08T05:01:10;99919.19;;;9.49;46.51
46714;BME280;32445;51.376;10.874;2023-04-08T05:04:10;99923.50;;;9.49;46.75
46714;BME280;32445;51.376;10.874;2023-04-08T05:07:10;99931.25;;;9.50;46.85
46714;BME280;32445;51.376;10.874;2023-04-08T05:10:11;99935.59;;;9.50;46.92
46714;BME280;32445;51.376;10.874;2023-04-08T05:13:11;99930.41;;;9.50;46.83
46714;BME280;32445;51.376;10.874;2023-04-08T05:16:12;99927.81;;;9.48;46.44
46714;BME280;32445;51.376;10.874;2023-04-08T05:19:12;99928.72;;;9.47;46.58
46714;BME280;32445;51.376;10.874;2023-04-08T05:22:13;99938.22;;;9.45;46.56
46714;BME280;32445;51.376;10.874;2023-04-08T05:25:13;99942.53;;;9.48;46.93
46714;BME280;32445;51.376;10.874;2023-04-08T05:28:13;99945.13;;;9.48;47.34
46714;BME280;32445;51.376;10.874;2023-04-08T05:31:18;99940.81;;;9.47;46.73
46714;BME280;32445;51.376;10.874;2023-04-08T05:34:19;99939.06;;;9.49;46.83
46714;BME280;32445;51.376;10.874;2023-04-08T05:37:21;99942.53;;;9.48;47.11
46714;BME280;32445;51.376;10.874;2023-04-08T05:40:22;99958.06;;;9.48;46.64
46714;BME280;32445;51.376;10.874;2023-04-08T05:43:22;99958.03;;;9.49;46.92
46714;BME280;32445;51.376;10.874;2023-04-08T05:46:23;99954.59;;;9.49;46.66
46714;BME280;32445;51.376;10.874;2023-04-08T05:49:24;99955.44;;;9.49;46.92
46714;BME280;32445;51.376;10.874;2023-04-08T05:52:24;99958.03;;;9.49;47.03
46714;BME280;32445;51.376;10.874;2023-04-08T05:55:25;99962.38;;;9.49;46.73
46714;BME280;32445;51.376;10.874;2023-04-08T05:58:27;99970.97;;;9.51;45.97
46714;BME280;32445;51.376;10.874;2023-04-08T06:01:27;99974.41;;;9.53;45.90
46714;BME280;32445;51.376;10.874;2023-04-08T06:04:28;99975.31;;;9.50;46.36
46714;BME280;32445;51.376;10.874;2023-04-08T06:07:29;99981.34;;;9.51;46.72
46714;BME280;32445;51.376;10.874;2023-04-08T06:10:29;99990.00;;;9.51;46.69
46714;BME280;32445;51.376;10.874;2023-04-08T06:13:30;99994.28;;;9.52;47.52
46714;BME280;32445;51.376;10.874;2023-04-08T06:16:31;99991.72;;;9.51;47.08
46714;BME280;32445;51.376;10.874;2023-04-08T06:19:31;99984.81;;;9.51;47.40
46714;BME280;32445;51.376;10.874;2023-04-08T06:25:52;99993.44;;;9.52;47.87
46714;BME280;32445;51.376;10.874;2023-04-08T06:28:53;100002.97;;;9.48;47.61
46714;BME280;32445;51.376;10.874;2023-04-08T06:31:53;99995.19;;;9.50;47.77
46714;BME280;32445;51.376;10.874;2023-04-08T06:34:54;99999.47;;;9.52;47.97
46714;BME280;32445;51.376;10.874;2023-04-08T06:37:54;100004.66;;;9.51;47.45
46714;BME280;32445;51.376;10.874;2023-04-08T06:40:54;100005.53;;;9.53;47.84
46714;BME280;32445;51.376;10.874;2023-04-08T06:43:55;100008.13;;;9.51;47.88
46714;BME280;32445;51.376;10.874;2023-04-08T06:46:55;100011.56;;;9.53;47.62
46714;BME280;32445;51.376;10.874;2023-04-08T06:49:56;100014.13;;;9.55;47.40
46714;BME280;32445;51.376;10.874;2023-04-08T06:52:56;100020.16;;;9.57;47.49
46714;BME280;32445;51.376;10.874;2023-04-08T06:55:56;100021.84;;;9.58;47.52
46714;BME280;32445;51.376;10.874;2023-04-08T06:58:57;100025.28;;;9.60;47.63
46714;BME280;32445;51.376;10.874;2023-04-08T07:01:57;100033.03;;;9.62;47.38
46714;BME280;32445;51.376;10.874;2023-04-08T07:04:57;100036.47;;;9.64;47.29
46714;BME280;32445;51.376;10.874;2023-04-08T07:07:58;100045.09;;;9.64;47.95
46714;BME280;32445;51.376;10.874;2023-04-08T07:10:58;100048.53;;;9.65;47.95
46714;BME280;32445;51.376;10.874;2023-04-08T07:13:58;100043.38;;;9.63;48.54
46714;BME280;32445;51.376;10.874;2023-04-08T07:16:59;100045.97;;;9.63;48.21
46714;BME280;32445;51.376;10.874;2023-04-08T07:19:59;100045.09;;;9.66;47.68
46714;BME280;32445;51.376;10.874;2023-04-08T07:23:00;100036.41;;;9.67;47.72
46714;BME280;32445;51.376;10.874;2023-04-08T07:26:03;100042.44;;;9.69;48.05
46714;BME280;32445;51.376;10.874;2023-04-08T07:29:04;100047.59;;;9.72;48.37
46714;BME280;32445;51.376;10.874;2023-04-08T07:32:04;100046.69;;;9.75;47.84
46714;BME280;32445;51.376;10.874;2023-04-08T07:35:05;100050.09;;;9.77;48.04
46714;BME280;32445;51.376;10.874;2023-04-08T07:38:05;100055.25;;;9.78;47.23
46714;BME280;32445;51.376;10.874;2023-04-08T07:41:10;100055.25;;;9.78;48.33
46714;BME280;32445;51.376;10.874;2023-04-08T07:44:10;100053.56;;;9.77;48.68
46714;BME280;32445;51.376;10.874;2023-04-08T07:47:11;100057.00;;;9.79;48.71
46714;BME280;32445;51.376;10.874;2023-04-08T07:50:11;100057.84;;;9.80;48.92
46714;BME280;32445;51.376;10.874;2023-04-08T07:53:12;100065.59;;;9.83;48.11
46714;BME280;32445;51.376;10.874;2023-04-08T07:56:14;100068.16;;;9.84;48.48
46714;BME280;32445;51.376;10.874;2023-04-08T07:59:15;100074.16;;;9.88;48.93
46714;BME280;32445;51.376;10.874;2023-04-08T08:02:15;100090.56;;;9.87;48.23
46714;BME280;32445;51.376;10.874;2023-04-08T08:05:16;100084.53;;;9.88;48.54
46714;BME280;32445;51.376;10.874;2023-04-08T08:08:16;100084.53;;;9.86;49.20
46714;BME280;32445;51.376;10.874;2023-04-08T08:11:16;100076.72;;;9.90;48.99
46714;BME280;32445;51.376;10.874;2023-04-08T08:14:17;100077.56;;;9.92;48.79
46714;BME280;32445;51.376;10.874;2023-04-08T08:17:17;100092.22;;;9.93;49.06
46714;BME280;32445;51.376;10.874;2023-04-08T08:20:18;100090.59;;;9.89;49.43
46714;BME280;32445;51.376;10.874;2023-04-08T08:23:18;100093.16;;;9.90;48.85
46714;BME280;32445;51.376;10.874;2023-04-08T08:26:22;100090.50;;;9.93;48.76
46714;BME280;32445;51.376;10.874;2023-04-08T08:29:22;100089.63;;;9.96;49.31
46714;BME280;32445;51.376;10.874;2023-04-08T08:32:22;100093.94;;;9.95;49.72
46714;BME280;32445;51.376;10.874;2023-04-08T08:35:23;100094.84;;;9.91;49.00
46714;BME280;32445;51.376;10.874;2023-04-08T08:38:23;100095.69;;;9.95;49.47
46714;BME280;32445;51.376;10.874;2023-04-08T08:41:24;100097.41;;;9.96;49.67
46714;BME280;32445;51.376;10.874;2023-04-08T08:44:24;100100.00;;;9.96;49.93
46714;BME280;32445;51.376;10.874;2023-04-08T08:47:26;100102.53;;;9.99;49.43
46714;BME280;32445;51.376;10.874;2023-04-08T08:50:29;100097.31;;;10.00;49.95
46714;BME280;32445;51.376;10.874;2023-04-08T08:53:29;100096.44;;;10.00;50.62
46714;BME280;32445;51.376;10.874;2023-04-08T08:56:31;100092.19;;;9.97;50.26
46714;BME280;32445;51.376;10.874;2023-04-08T08:59:32;100099.03;;;10.00;50.40
46714;BME280;32445;51.376;10.874;2023-04-08T09:02:33;100104.22;;;10.03;50.30
46714;BME280;32445;51.376;10.874;2023-04-08T09:05:55;100105.09;;;10.00;51.77
46714;BME280;32445;51.376;10.874;2023-04-08T09:08:56;100114.66;;;9.97;51.48
46714;BME280;32445;51.376;10.874;2023-04-08T09:12:02;100126.75;;;9.98;52.19
46714;BME280;32445;51.376;10.874;2023-04-08T09:15:07;100120.63;;;10.03;51.26
46714;BME280;32445;51.376;10.874;2023-04-08T09:18:20;100125.78;;;10.05;51.34
46714;BME280;32445;51.376;10.874;2023-04-08T09:21:22;100111.03;;;10.07;51.18
46714;BME280;32445;51.376;10.874;2023-04-08T09:24:28;100105.03;;;10.05;52.22
46714;BME280;32445;51.376;10.874;2023-04-08T09:27:35;100110.16;;;10.08;51.81
46714;BME280;32445;51.376;10.874;2023-04-08T09:30:36;100114.47;;;10.11;51.23
46714;BME280;32445;51.376;10.874;2023-04-08T09:33:36;100118.72;;;10.16;50.67
46714;BME280;32445;51.376;10.874;2023-04-08T09:36:37;100127.28;;;10.23;50.79
46714;BME280;32445;51.376;10.874;2023-04-08T09:39:37;100133.22;;;10.30;50.83
46714;BME280;32445;51.376;10.874;2023-04-08T09:42:39;100135.72;;;10.39;50.07
46714;BME280;32445;51.376;10.874;2023-04-08T09:45:41;100145.97;;;10.47;50.49
46714;BME280;32445;51.376;10.874;2023-04-08T09:49:04;100153.63;;;10.56;50.49
46714;BME280;32445;51.376;10.874;2023-04-08T09:52:18;100156.88;;;10.69;49.75
46714;BME280;32445;51.376;10.874;2023-04-08T09:55:21;100156.81;;;10.73;51.16
46714;BME280;32445;51.376;10.874;2023-04-08T09:58:33;100161.84;;;10.81;51.38
46714;BME280;32445;51.376;10.874;2023-04-08T10:01:39;100150.34;;;10.98;51.23
46714;BME280;32445;51.376;10.874;2023-04-08T10:04:44;100159.56;;;11.14;50.75
46714;BME280;32445;51.376;10.874;2023-04-08T10:07:47;100147.94;;;11.34;50.99
46714;BME280;32445;51.376;10.874;2023-04-08T10:10:48;100135.41;;;11.54;51.23
46714;BME280;32445;51.376;10.874;2023-04-08T10:13:49;100139.31;;;11.75;51.18
46714;BME280;32445;51.376;10.874;2023-04-08T10:16:50;100146.53;;;12.06;50.14
46714;BME280;32445;51.376;10.874;2023-04-08T10:19:50;100144.34;;;12.25;49.74
46714;BME280;32445;51.376;10.874;2023-04-08T10:22:51;100143.06;;;12.43;49.28
46714;BME280;32445;51.376;10.874;2023-04-08T10:25:51;100153.19;;;12.56;49.19
46714;BME280;32445;51.376;10.874;2023-04-08T10:28:51;100144.03;;;12.75;48.90
46714;BME280;32445;51.376;10.874;2023-04-08T10:31:52;100143.63;;;12.92;48.62
46714;BME280;32445;51.376;10.874;2023-04-08T10:34:52;100145.75;;;13.09;48.24
46714;BME280;32445;51.376;10.874;2023-04-08T10:37:53;100143.63;;;13.24;47.98
46714;BME280;32445;51.376;10.874;2023-04-08T10:40:53;100146.00;;;13.35;47.63
46714;BME280;32445;51.376;10.874;2023-04-08T10:43:54;100135.41;;;13.41;46.79
46714;BME280;32445;51.376;10.874;2023-04-08T10:46:54;100144.75;;;13.48;46.51
46714;BME280;32445;51.376;10.874;2023-04-08T10:49:55;100149.88;;;13.53;46.17
46714;BME280;32445;51.376;10.874;2023-04-08T10:52:55;100140.19;;;13.56;45.53
46714;BME280;32445;51.376;10.874;2023-04-08T10:56:09;100152.28;;;13.59;45.82
46714;BME280;32445;51.376;10.874;2023-04-08T10:59:13;100155.63;;;13.64;45.22
46714;BME280;32445;51.376;10.874;2023-04-08T11:02:15;100153.88;;;13.64;45.48
46714;BME280;32445;51.376;10.874;2023-04-08T11:05:16;100152.94;;;13.67;45.21
46714;BME280;32445;51.376;10.874;2023-04-08T11:08:16;100156.34;;;13.69;45.32
46714;BME280;32445;51.376;10.874;2023-04-08T11:11:18;100153.69;;;13.71;45.37
46714;BME280;32445;51.376;10.874;2023-04-08T11:14:19;100166.59;;;13.75;45.51
46714;BME280;32445;51.376;10.874;2023-04-08T11:17:20;100168.13;;;13.82;44.68
46714;BME280;32445;51.376;10.874;2023-04-08T11:20:21;100174.88;;;13.90;44.19
46714;BME280;32445;51.376;10.874;2023-04-08T11:23:23;100173.94;;;13.92;44.88
46714;BME280;32445;51.376;10.874;2023-04-08T11:26:24;100176.47;;;13.95;44.72
46714;BME280;32445;51.376;10.874;2023-04-08T11:29:25;100172.13;;;13.96;44.50
46714;BME280;32445;51.376;10.874;2023-04-08T11:32:27;100176.66;;;13.89;44.76
46714;BME280;32445;51.376;10.874;2023-04-08T11:35:30;100186.25;;;13.89;44.95
46714;BME280;32445;51.376;10.874;2023-04-08T11:38:31;100179.31;;;13.88;44.54
46714;BME280;32445;51.376;10.874;2023-04-08T11:41:35;100181.13;;;13.86;44.85
46714;BME280;32445;51.376;10.874;2023-04-08T11:44:36;100182.00;;;13.84;44.75
46714;BME280;32445;51.376;10.874;2023-04-08T11:47:37;100184.66;;;13.83;44.33
46714;BME280;32445;51.376;10.874;2023-04-08T11:50:37;100183.00;;;13.80;44.10
46714;BME280;32445;51.376;10.874;2023-04-08T11:53:38;100184.75;;;13.80;44.12
46714;BME280;32445;51.376;10.874;2023-04-08T11:56:45;100174.31;;;13.80;44.54
46714;BME280;32445;51.376;10.874;2023-04-08T11:59:46;100177.69;;;13.83;44.82
46714;BME280;32445;51.376;10.874;2023-04-08T12:02:47;100183.69;;;13.87;45.02
46714;BME280;32445;51.376;10.874;2023-04-08T12:05:48;100193.94;;;13.93;44.35
46714;BME280;32445;51.376;10.874;2023-04-08T12:08:53;100199.91;;;13.97;44.98
46714;BME280;32445;51.376;10.874;2023-04-08T12:12:09;100198.03;;;14.02;45.08
46714;BME280;32445;51.376;10.874;2023-04-08T12:15:12;100190.94;;;14.07;45.09
46714;BME280;32445;51.376;10.874;2023-04-08T12:18:12;100191.56;;;14.14;44.59
46714;BME280;32445;51.376;10.874;2023-04-08T12:21:13;100201.84;;;14.20;44.39
46714;BME280;32445;51.376;10.874;2023-04-08T12:24:13;100188.72;;;14.23;44.07
46714;BME280;32445;51.376;10.874;2023-04-08T12:27:14;100196.41;;;14.28;43.86
46714;BME280;32445;51.376;10.874;2023-04-08T12:30:14;100200.69;;;14.30;44.05
46714;BME280;32445;51.376;10.874;2023-04-08T12:33:15;100197.16;;;14.31;44.05
46714;BME280;32445;51.376;10.874;2023-04-08T12:36:15;100200.53;;;14.35;43.72
46714;BME280;32445;51.376;10.874;2023-04-08T12:39:16;100199.63;;;14.36;43.64
46714;BME280;32445;51.376;10.874;2023-04-08T12:42:16;100201.38;;;14.35;43.81
46714;BME280;32445;51.376;10.874;2023-04-08T12:45:17;100201.34;;;14.37;43.89
46714;BME280;32445;51.376;10.874;2023-04-08T12:48:17;100202.19;;;14.38;44.03
46714;BME280;32445;51.376;10.874;2023-04-08T12:51:25;100204.56;;;14.45;44.04
46714;BME280;32445;51.376;10.874;2023-04-08T12:54:28;100203.56;;;14.49;43.69
46714;BME280;32445;51.376;10.874;2023-04-08T12:57:31;100201.69;;;14.54;43.64
46714;BME280;32445;51.376;10.874;2023-04-08T13:00:32;100196.34;;;14.58;44.06
46714;BME280;32445;51.376;10.874;2023-04-08T13:03:45;100200.50;;;14.65;43.72
46714;BME280;32445;51.376;10.874;2023-04-08T13:06:52;100186.34;;;14.72;44.08
46714;BME280;32445;51.376;10.874;2023-04-08T13:09:55;100185.03;;;14.85;44.65
46714;BME280;32445;51.376;10.874;2023-04-08T13:12:55;100191.41;;;15.03;44.11
46714;BME280;32445;51.376;10.874;2023-04-08T13:15:55;100183.47;;;15.07;43.86
46714;BME280;32445;51.376;10.874;2023-04-08T13:18:56;100184.13;;;15.13;43.73
46714;BME280;32445;51.376;10.874;2023-04-08T13:21:57;100189.03;;;15.22;43.66
46714;BME280;32445;51.376;10.874;2023-04-08T13:24:57;100186.88;;;15.34;42.92
46714;BME280;32445;51.376;10.874;2023-04-08T13:27:57;100192.66;;;15.44;42.63
46714;BME280;32445;51.376;10.874;2023-04-08T13:30:58;100189.94;;;15.47;42.82
46714;BME280;32445;51.376;10.874;2023-04-08T13:33:58;100189.81;;;15.50;42.49
46714;BME280;32445;51.376;10.874;2023-04-08T13:36:58;100194.94;;;15.53;42.15
46714;BME280;32445;51.376;10.874;2023-04-08T13:39:59;100197.50;;;15.54;41.85
46714;BME280;32445;51.376;10.874;2023-04-08T13:42:59;100196.59;;;15.55;41.84
46714;BME280;32445;51.376;10.874;2023-04-08T13:46:00;100196.72;;;15.52;41.80
46714;BME280;32445;51.376;10.874;2023-04-08T13:49:01;100200.34;;;15.48;42.11
46714;BME280;32445;51.376;10.874;2023-04-08T13:52:02;100196.06;;;15.46;42.26
46714;BME280;32445;51.376;10.874;2023-04-08T13:55:03;100197.06;;;15.43;42.22
46714;BME280;32445;51.376;10.874;2023-04-08T13:58:03;100192.72;;;15.42;41.93
46714;BME280;32445;51.376;10.874;2023-04-08T14:01:03;100196.22;;;15.41;42.17
46714;BME280;32445;51.376;10.874;2023-04-08T14:04:07;100195.50;;;15.37;42.26
46714;BME280;32445;51.376;10.874;2023-04-08T14:07:08;100190.47;;;15.31;42.32
46714;BME280;32445;51.376;10.874;2023-04-08T14:10:08;100198.59;;;15.23;42.57
46714;BME280;32445;51.376;10.874;2023-04-08T14:13:15;100189.25;;;15.16;42.81
46714;BME280;32445;51.376;10.874;2023-04-08T14:16:16;100185.78;;;15.16;42.83
46714;BME280;32445;51.376;10.874;2023-04-08T14:19:17;100187.47;;;15.17;42.80
46714;BME280;32445;51.376;10.874;2023-04-08T14:22:20;100192.59;;;15.20;42.48
46714;BME280;32445;51.376;10.874;2023-04-08T14:25:23;100200.38;;;15.21;42.64
46714;BME280;32445;51.376;10.874;2023-04-08T14:28:28;100194.25;;;15.22;42.65
46714;BME280;32445;51.376;10.874;2023-04-08T14:31:29;100188.91;;;15.26;42.64
46714;BME280;32445;51.376;10.874;2023-04-08T14:34:30;100191.47;;;15.27;42.68
46714;BME280;32445;51.376;10.874;2023-04-08T14:37:35;100189.72;;;15.28;42.35
46714;BME280;32445;51.376;10.874;2023-04-08T14:40:39;100191.53;;;15.26;42.16
46714;BME280;32445;51.376;10.874;2023-04-08T14:43:48;100188.22;;;15.20;42.47
46714;BME280;32445;51.376;10.874;2023-04-08T14:46:59;100198.09;;;15.12;42.69
46714;BME280;32445;51.376;10.874;2023-04-08T14:50:02;100192.16;;;15.07;42.39
46714;BME280;32445;51.376;10.874;2023-04-08T14:53:08;100196.66;;;15.03;42.82
46714;BME280;32445;51.376;10.874;2023-04-08T14:56:11;100195.81;;;15.01;42.43
46714;BME280;32445;51.376;10.874;2023-04-08T14:59:11;100197.75;;;14.96;42.62
46714;BME280;32445;51.376;10.874;2023-04-08T15:02:27;100195.31;;;14.92;42.75
46714;BME280;32445;51.376;10.874;2023-04-08T15:05:28;100193.63;;;14.89;42.46
46714;BME280;32445;51.376;10.874;2023-04-08T15:08:31;100192.88;;;14.85;42.92
46714;BME280;32445;51.376;10.874;2023-04-08T15:11:47;100201.75;;;14.80;42.60
46714;BME280;32445;51.376;10.874;2023-04-08T15:15:02;100199.31;;;14.75;42.97
46714;BME280;32445;51.376;10.874;2023-04-08T15:18:03;100198.50;;;14.73;43.06
46714;BME280;32445;51.376;10.874;2023-04-08T15:21:07;100205.59;;;14.69;42.83
46714;BME280;32445;51.376;10.874;2023-04-08T15:24:10;100207.41;;;14.67;42.97
46714;BME280;32445;51.376;10.874;2023-04-08T15:27:10;100207.44;;;14.66;43.05
46714;BME280;32445;51.376;10.874;2023-04-08T15:30:11;100211.00;;;14.63;42.68
46714;BME280;32445;51.376;10.874;2023-04-08T15:33:11;100212.81;;;14.60;42.72
46714;BME280;32445;51.376;10.874;2023-04-08T15:36:12;100211.19;;;14.57;42.77
46714;BME280;32445;51.376;10.874;2023-04-08T15:39:18;100217.31;;;14.56;42.84
46714;BME280;32445;51.376;10.874;2023-04-08T15:42:19;100218.28;;;14.52;42.89
46714;BME280;32445;51.376;10.874;2023-04-08T15:45:20;100216.69;;;14.48;43.03
46714;BME280;32445;51.376;10.874;2023-04-08T15:48:21;100223.97;;;14.36;43.31
46714;BME280;32445;51.376;10.874;2023-04-08T15:51:21;100222.50;;;14.28;43.46
46714;BME280;32445;51.376;10.874;2023-04-08T15:54:22;100231.47;;;14.19;43.82